createdAt,value
2023-05-22T00:02:18.144Z,100807.61
2023-05-22T00:04:47.123Z,100805.43
2023-05-22T00:07:15.821Z,100807.03
2023-05-22T00:09:44.181Z,100805.27
2023-05-22T00:12:12.586Z,100805.36
2023-05-22T00:14:40.961Z,100803.45
2023-05-22T00:17:10.505Z,100800.91
2023-05-22T00:19:38.977Z,100797.86
2023-05-22T00:22:07.479Z,100796.55
2023-05-22T00:24:36.333Z,100791.88
2023-05-22T00:27:05.253Z,100795.55
2023-05-22T00:29:33.665Z,100788.64
2023-05-22T00:32:02.059Z,100791.85
2023-05-22T00:34:30.435Z,100792.48
2023-05-22T00:36:58.927Z,100789.55
2023-05-22T00:39:27.444Z,100788.73
2023-05-22T00:41:55.853Z,100787.21
2023-05-22T00:44:24.552Z,100790.98
2023-05-22T00:46:53.135Z,100792.14
2023-05-22T00:49:21.545Z,100791.16
2023-05-22T00:51:50.266Z,100792.21
2023-05-22T00:54:18.827Z,100789.34
2023-05-22T00:56:47.923Z,100788.40
2023-05-22T00:59:17.632Z,100786.34
2023-05-22T01:01:46.392Z,100785.23
2023-05-22T01:04:15.756Z,100787.85
2023-05-22T01:06:47.930Z,100790.91
2023-05-22T01:09:16.410Z,100790.11
2023-05-22T01:12:16.327Z,100790.91
2023-05-22T01:15:00.506Z,100793.25
2023-05-22T01:17:56.017Z,100793.44
2023-05-22T01:20:49.186Z,100793.45
2023-05-22T01:23:49.148Z,100791.92
2023-05-22T01:26:23.576Z,100790.73
2023-05-22T01:29:13.687Z,100790.31
2023-05-22T01:31:44.160Z,100790.38
2023-05-22T01:34:14.146Z,100790.64
2023-05-22T01:36:47.362Z,100794.89
2023-05-22T01:39:16.549Z,100791.70
2023-05-22T01:41:45.886Z,100792.69
2023-05-22T01:44:15.114Z,100792.41
2023-05-22T01:46:43.505Z,100792.63
2023-05-22T01:49:11.908Z,100794.95
2023-05-22T01:51:54.647Z,100793.18
2023-05-22T01:54:47.038Z,100794.08
2023-05-22T01:57:51.169Z,100793.19
2023-05-22T02:00:22.660Z,100794.73
2023-05-22T02:03:16.858Z,100795.02
2023-05-22T02:05:47.347Z,100796.30
2023-05-22T02:08:17.010Z,100793.53
2023-05-22T02:10:46.809Z,100795.29
2023-05-22T02:13:15.336Z,100796.55
2023-05-22T02:15:46.786Z,100794.74
2023-05-22T02:18:15.259Z,100792.60
2023-05-22T02:20:44.166Z,100794.34
2023-05-22T02:23:12.681Z,100790.48
2023-05-22T02:25:41.459Z,100791.33
2023-05-22T02:28:09.934Z,100794.05
2023-05-22T02:30:38.798Z,100793.70
2023-05-22T02:33:09.687Z,100792.92
2023-05-22T02:35:37.905Z,100789.89
2023-05-22T02:38:06.992Z,100792.11
2023-05-22T02:40:35.452Z,100789.03
2023-05-22T02:43:04.038Z,100785.10
2023-05-22T02:45:33.235Z,100787.44
2023-05-22T02:48:03.937Z,100786.13
2023-05-22T02:50:32.414Z,100785.73
2023-05-22T02:53:00.987Z,100780.73
2023-05-22T02:55:29.481Z,100777.85
2023-05-22T02:57:57.986Z,100779.65
2023-05-22T03:00:26.509Z,100775.44
2023-05-22T03:02:55.016Z,100775.76
2023-05-22T03:05:23.511Z,100772.22
2023-05-22T03:07:53.061Z,100770.44
2023-05-22T03:10:21.555Z,100768.63
2023-05-22T03:12:52.086Z,100769.14
2023-05-22T03:15:20.966Z,100765.77
2023-05-22T03:17:49.407Z,100761.38
2023-05-22T03:20:18.207Z,100761.71
2023-05-22T03:22:46.625Z,100764.52
2023-05-22T03:25:15.043Z,100764.95
2023-05-22T03:27:43.614Z,100767.52
2023-05-22T03:30:12.783Z,100769.37
2023-05-22T03:32:41.298Z,100768.05
2023-05-22T03:35:10.209Z,100765.52
2023-05-22T03:37:38.528Z,100761.38
2023-05-22T03:40:08.049Z,100758.87
2023-05-22T03:42:36.387Z,100762.41
2023-05-22T03:45:05.389Z,100764.13
2023-05-22T03:47:33.816Z,100769.27
2023-05-22T03:50:02.166Z,100770.36
2023-05-22T03:52:30.675Z,100770.48
2023-05-22T03:54:59.241Z,100769.77
2023-05-22T03:57:27.705Z,100771.67
2023-05-22T03:59:56.077Z,100771.77
2023-05-22T04:02:26.583Z,100773.83
2023-05-22T04:04:55.189Z,100771.23
2023-05-22T04:07:23.596Z,100769.66
2023-05-22T04:09:51.986Z,100769.14
2023-05-22T04:12:20.369Z,100767.60
2023-05-22T04:14:48.602Z,100766.52
2023-05-22T04:17:16.997Z,100765.06
2023-05-22T04:19:45.333Z,100766.50
2023-05-22T04:22:13.668Z,100769.86
2023-05-22T04:24:42.011Z,100772.53
2023-05-22T04:27:10.501Z,100771.48
2023-05-22T04:29:41.870Z,100773.27
2023-05-22T04:32:10.988Z,100773.83
2023-05-22T04:34:39.344Z,100769.43
2023-05-22T04:37:07.710Z,100766.58
2023-05-22T04:39:36.263Z,100764.42
2023-05-22T04:42:06.432Z,100761.02
2023-05-22T04:44:35.000Z,100754.83
2023-05-22T04:47:06.065Z,100752.17
2023-05-22T04:49:36.160Z,100755.42
2023-05-22T04:52:06.447Z,100752.94
2023-05-22T04:54:34.802Z,100752.30
2023-05-22T04:57:05.113Z,100756.10
2023-05-22T04:59:40.282Z,100751.34
2023-05-22T05:02:08.734Z,100749.66
2023-05-22T05:04:37.474Z,100754.00
2023-05-22T05:07:06.538Z,100754.79
2023-05-22T05:09:35.017Z,100755.58
2023-05-22T05:15:30.610Z,100759.31
2023-05-22T05:19:12.028Z,100763.11
2023-05-22T05:21:55.571Z,100758.88
2023-05-22T05:24:56.048Z,100756.95
2023-05-22T05:28:33.326Z,100759.91
2023-05-22T05:32:01.440Z,100760.95
2023-05-22T05:34:30.517Z,100761.46
2023-05-22T05:37:56.734Z,100761.97
2023-05-22T05:40:39.709Z,100763.41
2023-05-22T05:47:20.535Z,100762.17
2023-05-22T05:50:48.891Z,100761.80
2023-05-22T05:54:15.500Z,100763.53
2023-05-22T06:01:45.636Z,100763.15
2023-05-22T06:04:36.130Z,100762.80
2023-05-22T06:07:07.124Z,100757.77
2023-05-22T06:10:31.077Z,100756.60
2023-05-22T06:13:41.697Z,100758.48
2023-05-22T06:20:18.562Z,100755.87
2023-05-22T06:23:59.504Z,100749.45
2023-05-22T06:27:27.207Z,100745.95
2023-05-22T06:31:37.846Z,100742.94
2023-05-22T06:37:54.343Z,100739.96
2023-05-22T06:51:05.654Z,100742.89
2023-05-22T06:54:32.035Z,100744.18
2023-05-22T06:57:57.080Z,100744.53
2023-05-22T07:01:14.410Z,100742.73
2023-05-22T07:07:36.685Z,100737.59
2023-05-22T07:18:40.833Z,100733.27
2023-05-22T07:26:06.846Z,100734.15
2023-05-22T07:28:54.473Z,100735.06
2023-05-22T07:41:16.903Z,100727.20
2023-05-22T07:44:22.456Z,100722.38
2023-05-22T07:50:55.554Z,100719.70
2023-05-22T07:56:42.345Z,100714.32
2023-05-22T07:59:18.929Z,100713.05
2023-05-22T08:02:42.710Z,100714.13
2023-05-22T08:06:02.600Z,100718.45
2023-05-22T08:08:39.758Z,100715.55
2023-05-22T08:15:27.820Z,100711.60
2023-05-22T08:18:38.869Z,100711.25
2023-05-22T08:24:22.724Z,100705.16
2023-05-22T08:27:12.824Z,100702.67
2023-05-22T08:37:04.389Z,100708.71
2023-05-22T08:39:54.381Z,100705.63
2023-05-22T08:56:57.677Z,100697.08
2023-05-22T09:00:16.112Z,100696.67
2023-05-22T09:03:49.089Z,100692.50
2023-05-22T09:07:02.296Z,100685.35
2023-05-22T09:09:45.125Z,100684.10
2023-05-22T09:12:14.680Z,100684.77
2023-05-22T09:14:45.314Z,100681.65
2023-05-22T09:17:17.653Z,100677.10
2023-05-22T09:19:46.722Z,100675.34
2023-05-22T09:22:15.316Z,100672.84
2023-05-22T09:24:46.488Z,100669.21
2023-05-22T09:27:28.722Z,100671.69
2023-05-22T09:30:09.544Z,100669.71
2023-05-22T09:33:14.327Z,100667.32
2023-05-22T09:35:50.282Z,100661.83
2023-05-22T09:38:30.586Z,100665.37
2023-05-22T09:42:05.356Z,100660.88
2023-05-22T09:45:09.457Z,100658.98
2023-05-22T09:49:05.528Z,100655.80
2023-05-22T09:51:54.823Z,100657.98
2023-05-22T09:55:12.636Z,100654.98
2023-05-22T09:59:20.360Z,100651.59
2023-05-22T10:02:07.253Z,100651.23
2023-05-22T10:05:37.457Z,100651.06
2023-05-22T10:15:32.462Z,100649.99
2023-05-22T10:18:33.642Z,100649.36
2023-05-22T10:21:06.474Z,100649.88
2023-05-22T10:24:27.052Z,100647.09
2023-05-22T10:28:02.750Z,100647.14
2023-05-22T10:30:49.112Z,100641.65
2023-05-22T10:34:01.432Z,100639.27
2023-05-22T10:37:17.293Z,100636.58
2023-05-22T10:40:19.840Z,100635.02
2023-05-22T10:43:19.189Z,100632.72
2023-05-22T10:46:19.393Z,100634.33
2023-05-22T10:49:05.989Z,100630.58
2023-05-22T10:52:09.128Z,100632.36
2023-05-22T10:54:45.789Z,100634.20
2023-05-22T10:57:16.700Z,100630.58
2023-05-22T10:59:51.732Z,100630.40
2023-05-22T11:02:22.452Z,100624.23
2023-05-22T11:04:51.325Z,100621.83
2023-05-22T11:07:19.957Z,100620.83
2023-05-22T11:09:48.973Z,100615.97
2023-05-22T11:12:19.758Z,100612.15
2023-05-22T11:15:11.323Z,100614.34
2023-05-22T11:17:40.205Z,100613.42
2023-05-22T11:20:26.113Z,100614.79
2023-05-22T11:23:04.564Z,100612.80
2023-05-22T11:25:37.969Z,100609.19
2023-05-22T11:28:08.201Z,100609.26
2023-05-22T11:30:38.575Z,100608.76
2023-05-22T11:33:07.454Z,100602.30
2023-05-22T11:35:36.227Z,100596.70
2023-05-22T11:38:08.340Z,100592.48
2023-05-22T11:40:36.899Z,100589.77
2023-05-22T11:43:05.534Z,100589.16
2023-05-22T11:45:38.072Z,100582.75
2023-05-22T11:48:09.233Z,100587.56
2023-05-22T11:50:43.960Z,100582.35
2023-05-22T11:53:12.977Z,100583.77
2023-05-22T11:55:43.514Z,100584.31
2023-05-22T11:58:12.054Z,100586.95
2023-05-22T12:00:40.775Z,100585.24
2023-05-22T12:06:09.758Z,100577.02
2023-05-22T12:09:30.708Z,100571.49
2023-05-22T12:11:59.350Z,100571.33
2023-05-22T12:14:33.770Z,100569.53
2023-05-22T12:17:12.836Z,100568.39
2023-05-22T12:19:42.352Z,100567.21
2023-05-22T12:22:11.770Z,100562.38
2023-05-22T12:24:47.726Z,100558.39
2023-05-22T12:27:16.197Z,100558.44
2023-05-22T12:29:44.683Z,100556.20
2023-05-22T12:32:14.036Z,100552.96
2023-05-22T12:34:45.218Z,100551.30
2023-05-22T12:37:25.452Z,100548.48
2023-05-22T12:39:58.832Z,100549.95
2023-05-22T12:42:28.362Z,100550.95
2023-05-22T12:44:58.428Z,100551.88
2023-05-22T12:47:27.285Z,100549.73
2023-05-22T12:49:56.371Z,100544.55
2023-05-22T12:52:24.979Z,100542.05
2023-05-22T12:54:53.554Z,100543.98
2023-05-22T12:57:22.191Z,100540.80
2023-05-22T12:59:50.749Z,100540.86
2023-05-22T13:02:19.871Z,100538.16
2023-05-22T13:04:48.481Z,100541.55
2023-05-22T13:07:17.064Z,100538.85
2023-05-22T13:09:45.503Z,100533.67
2023-05-22T13:12:14.163Z,100532.77
2023-05-22T13:14:42.608Z,100536.75
2023-05-22T13:17:11.470Z,100527.74
2023-05-22T13:19:39.985Z,100524.34
2023-05-22T13:22:09.274Z,100526.50
2023-05-22T13:24:37.737Z,100527.69
2023-05-22T13:27:06.476Z,100529.79
2023-05-22T13:29:34.985Z,100530.17
2023-05-22T13:32:03.510Z,100525.81
2023-05-22T13:34:32.041Z,100524.39
2023-05-22T13:37:00.677Z,100522.23
2023-05-22T13:39:29.304Z,100520.17
2023-05-22T13:41:57.988Z,100517.96
2023-05-22T13:44:27.089Z,100516.96
2023-05-22T13:46:55.929Z,100513.55
2023-05-22T13:49:24.478Z,100513.04
2023-05-22T13:51:53.504Z,100509.77
2023-05-22T13:54:22.128Z,100508.25
2023-05-22T13:56:50.559Z,100504.80
2023-05-22T13:59:18.994Z,100505.95
2023-05-22T14:01:48.707Z,100503.34
2023-05-22T14:04:17.210Z,100499.40
2023-05-22T14:06:45.640Z,100498.04
2023-05-22T14:09:14.069Z,100496.72
2023-05-22T14:11:42.569Z,100497.86
2023-05-22T14:14:11.259Z,100497.25
2023-05-22T14:16:42.765Z,100492.45
2023-05-22T14:19:11.266Z,100491.55
2023-05-22T14:21:39.731Z,100489.29
2023-05-22T14:24:08.242Z,100489.98
2023-05-22T14:26:36.608Z,100490.27
2023-05-22T14:29:05.312Z,100488.81
2023-05-22T14:31:45.231Z,100484.22
2023-05-22T14:34:15.946Z,100484.98
2023-05-22T14:36:44.467Z,100481.48
2023-05-22T14:39:12.912Z,100480.43
2023-05-22T14:41:41.471Z,100477.73
2023-05-22T14:44:10.107Z,100475.92
2023-05-22T14:46:38.463Z,100475.00
2023-05-22T14:49:07.173Z,100476.46
2023-05-22T14:51:35.610Z,100473.59
2023-05-22T14:54:05.838Z,100473.92
2023-05-22T14:56:34.409Z,100469.83
2023-05-22T14:59:02.980Z,100469.55
2023-05-22T15:01:31.586Z,100469.13
2023-05-22T15:04:00.102Z,100464.73
2023-05-22T15:06:29.695Z,100464.75
2023-05-22T15:08:58.301Z,100470.65
2023-05-22T15:11:27.421Z,100467.94
2023-05-22T15:13:55.916Z,100461.94
2023-05-22T15:16:26.047Z,100460.27
2023-05-22T15:18:55.537Z,100457.89
2023-05-22T15:21:24.500Z,100458.34
2023-05-22T15:23:52.901Z,100457.37
2023-05-22T15:26:21.900Z,100451.89
2023-05-22T15:28:50.467Z,100452.44
2023-05-22T15:31:18.980Z,100451.78
2023-05-22T15:33:47.555Z,100449.73
2023-05-22T15:36:16.269Z,100444.97
2023-05-22T15:38:44.797Z,100446.63
2023-05-22T15:41:13.919Z,100448.91
2023-05-22T15:43:42.519Z,100446.84
2023-05-22T15:46:12.809Z,100439.66
2023-05-22T15:48:41.131Z,100434.84
2023-05-22T15:51:10.061Z,100436.45
2023-05-22T15:53:39.592Z,100433.98
2023-05-22T15:56:09.180Z,100432.85
2023-05-22T15:58:37.603Z,100426.80
2023-05-22T16:01:08.079Z,100424.65
2023-05-22T16:03:36.377Z,100426.70
2023-05-22T16:06:05.065Z,100422.54
2023-05-22T16:08:33.668Z,100423.77
2023-05-22T16:11:02.159Z,100422.50
2023-05-22T16:13:30.987Z,100422.88
2023-05-22T16:15:59.608Z,100420.44
2023-05-22T16:18:28.188Z,100417.97
2023-05-22T16:20:56.606Z,100415.08
2023-05-22T16:23:25.256Z,100412.33
2023-05-22T16:25:53.770Z,100411.77
2023-05-22T16:28:22.323Z,100409.14
2023-05-22T16:30:50.793Z,100407.77
2023-05-22T16:33:19.183Z,100405.30
2023-05-22T16:35:47.683Z,100409.17
2023-05-22T16:38:16.236Z,100407.29
2023-05-22T16:40:44.730Z,100403.95
2023-05-22T16:43:14.269Z,100405.23
2023-05-22T16:45:46.995Z,100407.80
2023-05-22T16:48:15.485Z,100408.55
2023-05-22T16:50:44.999Z,100411.27
2023-05-22T16:53:16.943Z,100409.48
2023-05-22T16:55:45.781Z,100410.39
2023-05-22T16:58:14.532Z,100410.23
2023-05-22T17:00:43.273Z,100409.55
2023-05-22T17:03:12.305Z,100411.19
2023-05-22T17:05:41.241Z,100411.05
2023-05-22T17:08:10.312Z,100411.99
2023-05-22T17:10:38.888Z,100415.80
2023-05-22T17:13:07.982Z,100416.55
2023-05-22T17:15:36.402Z,100418.35
2023-05-22T17:18:05.080Z,100420.73
2023-05-22T17:20:34.396Z,100421.66
2023-05-22T17:23:02.823Z,100420.10
2023-05-22T17:37:10.985Z,100413.45
2023-05-22T17:39:39.575Z,100418.34
2023-05-22T17:42:08.104Z,100420.87
2023-05-22T17:44:38.693Z,100421.63
2023-05-22T17:47:07.635Z,100417.33
2023-05-22T17:49:37.929Z,100415.93
2023-05-22T17:52:08.904Z,100415.08
2023-05-22T17:54:37.743Z,100414.94
2023-05-22T17:57:06.491Z,100413.36
2023-05-22T17:59:34.932Z,100409.45
2023-05-22T18:02:03.364Z,100411.45
2023-05-22T18:04:31.825Z,100411.12
2023-05-22T18:07:00.167Z,100409.73
2023-05-22T18:09:28.574Z,100407.24
2023-05-22T18:12:03.947Z,100409.59
2023-05-22T18:14:32.868Z,100408.67
2023-05-22T18:17:01.263Z,100404.39
2023-05-22T18:19:29.792Z,100406.01
2023-05-22T18:21:58.207Z,100404.95
2023-05-22T18:24:28.495Z,100406.58
2023-05-22T18:26:57.076Z,100408.55
2023-05-22T18:29:25.451Z,100405.14
2023-05-22T18:31:54.131Z,100407.48
2023-05-22T18:34:22.744Z,100406.94
2023-05-22T18:36:52.981Z,100405.15
2023-05-22T18:39:21.820Z,100405.68
2023-05-22T18:41:50.858Z,100407.81
2023-05-22T18:44:19.245Z,100409.23
2023-05-22T18:46:47.917Z,100407.80
2023-05-22T18:49:16.394Z,100405.44
2023-05-22T18:52:02.444Z,100409.15
2023-05-22T18:57:52.740Z,100414.29
2023-05-22T19:00:21.255Z,100414.09
2023-05-22T19:03:31.082Z,100415.30
2023-05-22T19:07:03.503Z,100415.63
2023-05-22T19:09:39.663Z,100416.45
2023-05-22T19:12:08.213Z,100414.77
2023-05-22T19:14:36.991Z,100411.86
2023-05-22T19:17:08.030Z,100412.70
2023-05-22T19:19:36.851Z,100417.82
2023-05-22T19:22:06.998Z,100421.52
2023-05-22T19:24:38.702Z,100420.73
2023-05-22T19:27:07.530Z,100420.12
2023-05-22T19:29:36.211Z,100419.34
2023-05-22T19:32:04.692Z,100419.27
2023-05-22T19:34:33.408Z,100416.73
2023-05-22T19:37:01.920Z,100415.43
2023-05-22T19:39:30.192Z,100416.11
2023-05-22T19:41:58.544Z,100412.46
2023-05-22T19:44:26.971Z,100418.81
2023-05-22T19:46:56.986Z,100416.95
2023-05-22T19:49:25.477Z,100414.02
2023-05-22T19:51:55.916Z,100409.52
2023-05-22T19:54:25.135Z,100411.41
2023-05-22T19:56:53.797Z,100410.83
2023-05-22T19:59:22.404Z,100410.77
2023-05-22T20:01:53.894Z,100412.48
2023-05-22T20:04:23.544Z,100417.73
2023-05-22T20:06:52.144Z,100420.65
2023-05-22T20:09:20.953Z,100418.95
2023-05-22T20:11:50.103Z,100419.76
2023-05-22T20:14:18.742Z,100415.23
2023-05-22T20:16:50.649Z,100411.80
2023-05-22T20:19:20.511Z,100409.65
2023-05-22T20:21:52.342Z,100410.84
2023-05-22T20:24:21.447Z,100412.74
2023-05-22T20:26:49.965Z,100414.06
2023-05-22T20:29:18.921Z,100408.60
2023-05-22T20:31:47.703Z,100407.30
2023-05-22T20:34:19.577Z,100403.89
2023-05-22T20:36:48.817Z,100402.05
2023-05-22T20:39:18.359Z,100405.24
2023-05-22T20:41:50.161Z,100405.73
2023-05-22T20:44:23.829Z,100406.38
2023-05-22T20:46:53.829Z,100404.21
2023-05-22T20:49:22.916Z,100402.93
2023-05-22T20:51:54.549Z,100401.44
2023-05-22T20:54:23.149Z,100400.33
2023-05-22T20:56:53.258Z,100401.12
2023-05-22T20:59:23.324Z,100400.09
2023-05-22T21:01:52.762Z,100398.59
2023-05-22T21:04:22.155Z,100398.38
2023-05-22T21:06:53.037Z,100395.33
2023-05-22T21:09:24.816Z,100397.27
2023-05-22T21:11:53.914Z,100401.38
2023-05-22T21:14:26.616Z,100402.98
2023-05-22T21:16:56.113Z,100403.57
2023-05-22T21:19:26.270Z,100404.33
2023-05-22T21:21:55.020Z,100403.27
2023-05-22T21:24:23.521Z,100397.99
2023-05-22T21:26:52.310Z,100393.70
2023-05-22T21:29:21.499Z,100387.48
2023-05-22T21:31:50.472Z,100389.26
2023-05-22T21:34:19.025Z,100388.74
2023-05-22T21:36:47.460Z,100386.84
2023-05-22T21:39:16.945Z,100391.11
2023-05-22T21:41:45.680Z,100390.58
2023-05-22T21:44:14.693Z,100392.55
2023-05-22T21:46:46.483Z,100395.40
2023-05-22T21:49:21.604Z,100393.77
2023-05-22T21:51:52.715Z,100395.71
2023-05-22T21:54:22.645Z,100397.69
2023-05-22T21:56:51.073Z,100396.27
2023-05-22T21:59:19.515Z,100393.95
2023-05-22T22:01:47.925Z,100394.67
2023-05-22T22:04:16.421Z,100395.36
2023-05-22T22:06:44.858Z,100394.11
2023-05-22T22:09:13.390Z,100391.98
2023-05-22T22:11:41.749Z,100395.55
2023-05-22T22:14:10.351Z,100393.77
2023-05-22T22:16:40.853Z,100393.34
2023-05-22T22:19:09.705Z,100391.70
2023-05-22T22:21:38.181Z,100388.67
2023-05-22T22:24:06.890Z,100386.51
2023-05-22T22:26:35.912Z,100384.86
2023-05-22T22:29:04.420Z,100386.70
2023-05-22T22:31:32.824Z,100383.79
2023-05-22T22:34:01.455Z,100383.04
2023-05-22T22:40:42.521Z,100377.85
2023-05-22T22:43:11.295Z,100375.95
2023-05-22T22:45:42.933Z,100376.39
2023-05-22T22:48:11.507Z,100378.11
2023-05-22T22:50:40.436Z,100380.06
2023-05-22T22:53:08.993Z,100378.46
2023-05-22T22:55:37.757Z,100379.52
2023-05-22T22:58:07.056Z,100378.44
2023-05-22T23:00:36.949Z,100380.53
2023-05-22T23:03:05.511Z,100373.16
2023-05-22T23:05:34.144Z,100371.18
2023-05-22T23:08:02.589Z,100368.30
2023-05-22T23:10:30.958Z,100363.98
2023-05-22T23:12:59.517Z,100363.98
2023-05-22T23:15:28.172Z,100358.84
2023-05-22T23:17:56.771Z,100356.36
2023-05-22T23:20:25.144Z,100352.11
2023-05-22T23:22:53.652Z,100348.67
2023-05-22T23:25:22.158Z,100349.30
2023-05-22T23:27:51.023Z,100345.34
2023-05-22T23:30:19.594Z,100344.23
2023-05-22T23:32:48.035Z,100341.55
2023-05-22T23:35:16.573Z,100342.82
2023-05-22T23:37:44.916Z,100338.40
2023-05-22T23:40:13.439Z,100340.20
2023-05-22T23:42:41.863Z,100337.55
2023-05-22T23:49:28.176Z,100332.80
2023-05-22T23:51:56.548Z,100327.98
2023-05-22T23:54:25.017Z,100325.67
2023-05-22T23:56:53.451Z,100327.61
2023-05-22T23:59:21.909Z,100327.42
